createdAt,value
2023-02-07T00:01:21.946Z,4.82
2023-02-07T00:03:26.890Z,4.03
2023-02-07T00:05:31.929Z,4.32
2023-02-07T00:07:39.532Z,4.45
2023-02-07T00:09:44.784Z,4.20
2023-02-07T00:11:49.717Z,4.20
2023-02-07T00:13:59.383Z,3.88
2023-02-07T00:16:05.240Z,4.82
2023-02-07T00:18:10.156Z,4.68
2023-02-07T00:20:17.462Z,4.70
2023-02-07T00:22:22.737Z,4.95
2023-02-07T00:24:30.525Z,4.65
2023-02-07T00:26:36.375Z,5.28
2023-02-07T00:28:41.374Z,4.72
2023-02-07T00:30:46.573Z,4.70
2023-02-07T00:32:51.516Z,5.10
2023-02-07T00:34:56.428Z,4.38
2023-02-07T00:37:01.696Z,5.18
2023-02-07T00:39:11.172Z,4.32
2023-02-07T00:41:20.130Z,4.57
2023-02-07T00:43:30.024Z,3.75
2023-02-07T00:45:35.443Z,3.97
2023-02-07T00:47:40.573Z,4.03
2023-02-07T00:49:46.182Z,4.18
2023-02-07T00:51:51.079Z,4.10
2023-02-07T00:53:56.555Z,4.03
2023-02-07T00:56:02.838Z,3.92
2023-02-07T00:58:10.875Z,4.05
2023-02-07T01:00:17.891Z,4.38
2023-02-07T01:02:24.779Z,4.45
2023-02-07T01:04:29.812Z,5.07
2023-02-07T01:06:37.137Z,5.38
2023-02-07T01:08:42.701Z,4.72
2023-02-07T01:10:48.366Z,4.88
2023-02-07T01:12:54.177Z,5.03
2023-02-07T01:15:03.518Z,4.85
2023-02-07T01:17:09.597Z,4.60
2023-02-07T01:19:16.127Z,5.25
2023-02-07T01:21:23.454Z,5.75
2023-02-07T01:23:28.336Z,5.10
2023-02-07T01:25:33.990Z,5.60
2023-02-07T01:27:39.659Z,5.32
2023-02-07T01:29:45.459Z,4.70
2023-02-07T01:31:54.220Z,5.68
2023-02-07T01:34:04.245Z,5.88
2023-02-07T01:36:12.840Z,6.13
2023-02-07T01:38:19.249Z,6.22
2023-02-07T01:40:24.819Z,6.35
2023-02-07T01:42:31.662Z,6.45
2023-02-07T01:45:08.773Z,6.15
2023-02-07T01:47:22.183Z,6.13
2023-02-07T01:49:31.896Z,6.15
2023-02-07T01:51:38.186Z,6.13
2023-02-07T01:53:44.201Z,6.55
2023-02-07T01:55:53.284Z,6.32
2023-02-07T01:57:58.890Z,6.32
2023-02-07T02:00:05.232Z,6.78
2023-02-07T02:02:26.271Z,7.35
2023-02-07T02:04:31.558Z,7.22
2023-02-07T02:06:38.256Z,6.97
2023-02-07T02:08:43.552Z,6.95
2023-02-07T02:11:05.742Z,7.35
2023-02-07T02:13:23.306Z,8.15
2023-02-07T02:15:40.237Z,8.45
2023-02-07T02:18:15.944Z,7.97
2023-02-07T02:21:10.054Z,9.00
2023-02-07T02:23:23.849Z,8.23
2023-02-07T02:26:18.966Z,8.65
2023-02-07T02:29:03.020Z,8.05
2023-02-07T02:31:44.628Z,8.90
2023-02-07T02:33:58.393Z,8.13
2023-02-07T02:36:16.862Z,7.85
2023-02-07T02:38:33.458Z,9.07
2023-02-07T02:40:51.358Z,9.35
2023-02-07T02:43:04.887Z,8.90
2023-02-07T02:47:22.675Z,8.35
2023-02-07T02:49:30.637Z,8.13
2023-02-07T02:51:35.833Z,10.77
2023-02-07T02:53:41.145Z,13.20
2023-02-07T02:56:17.020Z,13.23
2023-02-07T02:58:33.131Z,12.18
2023-02-07T03:00:59.314Z,10.75
2023-02-07T03:03:38.187Z,12.18
2023-02-07T03:06:00.652Z,11.52
2023-02-07T03:08:21.051Z,12.60
2023-02-07T03:10:38.395Z,11.40
2023-02-07T03:12:51.271Z,11.82
2023-02-07T03:15:04.451Z,12.35
2023-02-07T03:17:22.471Z,11.63
2023-02-07T03:19:33.363Z,10.95
2023-02-07T03:21:46.861Z,11.05
2023-02-07T03:26:00.715Z,10.43
2023-02-07T03:28:07.317Z,10.98
2023-02-07T03:30:19.384Z,11.82
2023-02-07T03:32:25.325Z,11.02
2023-02-07T03:34:38.096Z,11.75
2023-02-07T03:36:52.947Z,11.77
2023-02-07T03:38:57.927Z,11.15
2023-02-07T03:41:09.781Z,11.00
2023-02-07T03:43:18.709Z,11.98
2023-02-07T03:45:25.505Z,11.18
2023-02-07T03:47:31.777Z,11.80
2023-02-07T03:49:36.727Z,12.57
2023-02-07T03:51:41.643Z,12.65
2023-02-07T03:53:49.148Z,13.32
2023-02-07T03:55:54.276Z,13.65
2023-02-07T03:57:59.617Z,13.02
2023-02-07T04:00:04.572Z,13.30
2023-02-07T04:02:17.434Z,13.48
2023-02-07T04:04:22.948Z,15.02
2023-02-07T04:06:28.370Z,13.73
2023-02-07T04:08:34.639Z,12.50
2023-02-07T04:10:42.099Z,12.38
2023-02-07T04:12:47.275Z,12.30
2023-02-07T04:14:52.412Z,11.63
2023-02-07T04:16:57.299Z,12.55
2023-02-07T04:19:02.351Z,12.90
2023-02-07T04:21:11.483Z,13.20
2023-02-07T04:23:17.003Z,12.82
2023-02-07T04:25:22.328Z,13.43
2023-02-07T04:27:32.219Z,14.05
2023-02-07T04:29:37.712Z,13.73
2023-02-07T04:31:42.977Z,14.80
2023-02-07T04:33:47.877Z,14.23
2023-02-07T04:35:59.293Z,14.70
2023-02-07T04:38:04.701Z,14.00
2023-02-07T04:40:12.167Z,13.45
2023-02-07T04:42:17.305Z,14.82
2023-02-07T04:44:25.281Z,13.98
2023-02-07T04:46:30.589Z,14.45
2023-02-07T04:48:37.003Z,15.15
2023-02-07T04:50:41.947Z,14.43
2023-02-07T04:52:46.857Z,13.45
2023-02-07T04:54:52.026Z,14.00
2023-02-07T04:56:57.239Z,15.00
2023-02-07T04:59:02.463Z,12.23
2023-02-07T05:01:10.058Z,13.35
2023-02-07T05:03:15.547Z,14.05
2023-02-07T05:05:21.438Z,13.65
2023-02-07T05:07:26.357Z,13.45
2023-02-07T05:09:31.638Z,13.90
2023-02-07T05:11:37.271Z,14.75
2023-02-07T05:13:42.221Z,14.63
2023-02-07T05:15:47.511Z,13.23
2023-02-07T05:17:56.990Z,16.00
2023-02-07T05:20:01.884Z,16.30
2023-02-07T05:22:08.050Z,16.38
2023-02-07T05:24:13.812Z,15.32
2023-02-07T05:26:19.466Z,15.82
2023-02-07T05:28:24.451Z,15.43
2023-02-07T05:30:30.062Z,15.27
2023-02-07T05:32:47.761Z,16.02
2023-02-07T05:34:55.251Z,15.50
2023-02-07T05:37:01.275Z,14.63
2023-02-07T05:39:06.485Z,15.57
2023-02-07T05:41:11.371Z,15.20
2023-02-07T05:43:17.062Z,15.65
2023-02-07T05:45:23.738Z,15.18
2023-02-07T05:47:29.440Z,13.93
2023-02-07T05:49:34.401Z,15.05
2023-02-07T05:51:42.081Z,15.10
2023-02-07T05:53:46.975Z,14.68
2023-02-07T05:55:54.689Z,14.88
2023-02-07T05:58:00.049Z,16.85
2023-02-07T06:00:06.285Z,15.73
2023-02-07T06:02:17.104Z,16.25
2023-02-07T06:04:22.009Z,16.05
2023-02-07T06:06:26.901Z,15.25
2023-02-07T06:08:34.769Z,15.23
2023-02-07T06:10:39.912Z,16.13
2023-02-07T06:12:45.273Z,14.73
2023-02-07T06:14:51.069Z,15.98
2023-02-07T06:16:55.970Z,15.40
2023-02-07T06:19:01.231Z,15.82
2023-02-07T06:21:06.502Z,15.13
2023-02-07T06:23:11.804Z,15.82
2023-02-07T06:25:21.330Z,15.90
2023-02-07T06:27:26.476Z,16.42
2023-02-07T06:29:31.743Z,15.30
2023-02-07T06:31:36.751Z,15.73
2023-02-07T06:33:41.711Z,15.90
2023-02-07T06:35:47.524Z,15.55
2023-02-07T06:37:54.926Z,14.00
2023-02-07T06:40:00.066Z,15.18
2023-02-07T06:42:07.705Z,16.10
2023-02-07T06:44:12.957Z,14.75
2023-02-07T06:46:18.063Z,14.60
2023-02-07T06:48:26.068Z,15.77
2023-02-07T06:50:31.535Z,15.13
2023-02-07T06:52:36.872Z,16.27
2023-02-07T06:54:42.377Z,15.05
2023-02-07T06:56:47.329Z,14.52
2023-02-07T06:58:54.815Z,15.27
2023-02-07T07:01:00.074Z,14.68
2023-02-07T07:03:05.783Z,16.52
2023-02-07T07:05:11.438Z,15.25
2023-02-07T07:07:16.337Z,15.18
2023-02-07T07:09:21.404Z,15.50
2023-02-07T07:11:26.903Z,15.27
2023-02-07T07:13:32.277Z,14.85
2023-02-07T07:15:40.517Z,16.25
2023-02-07T07:17:46.229Z,16.55
2023-02-07T07:19:51.591Z,16.02
2023-02-07T07:21:59.085Z,16.50
2023-02-07T07:24:04.035Z,16.40
2023-02-07T07:26:09.355Z,19.50
2023-02-07T07:28:14.318Z,16.25
2023-02-07T07:30:20.121Z,18.90
2023-02-07T07:32:33.859Z,20.83
2023-02-07T07:34:39.711Z,21.08
2023-02-07T07:36:45.671Z,19.65
2023-02-07T07:38:52.389Z,22.90
2023-02-07T07:40:57.698Z,20.90
2023-02-07T07:43:02.781Z,19.98
2023-02-07T07:45:17.628Z,19.02
2023-02-07T07:47:22.558Z,19.75
2023-02-07T07:49:30.349Z,20.35
2023-02-07T07:51:35.499Z,19.27
2023-02-07T07:53:40.448Z,16.80
2023-02-07T07:55:45.604Z,15.68
2023-02-07T07:57:50.515Z,15.07
2023-02-07T07:59:55.417Z,15.35
2023-02-07T08:02:00.793Z,17.35
2023-02-07T08:04:06.590Z,16.70
2023-02-07T08:06:14.530Z,17.17
2023-02-07T08:08:20.187Z,18.27
2023-02-07T08:10:25.904Z,17.08
2023-02-07T08:12:31.030Z,17.40
2023-02-07T08:14:35.927Z,16.75
2023-02-07T08:16:41.087Z,19.17
2023-02-07T08:18:46.632Z,20.48
2023-02-07T08:20:52.319Z,26.50
2023-02-07T08:23:00.918Z,24.83
2023-02-07T08:25:06.861Z,21.50
2023-02-07T08:27:12.065Z,19.75
2023-02-07T08:29:17.014Z,17.50
2023-02-07T08:31:22.478Z,18.05
2023-02-07T08:33:29.421Z,17.73
2023-02-07T08:35:36.366Z,17.80
2023-02-07T08:37:41.679Z,19.63
2023-02-07T08:39:52.765Z,17.65
2023-02-07T08:41:57.683Z,22.77
2023-02-07T08:44:02.601Z,19.83
2023-02-07T08:46:08.803Z,17.73
2023-02-07T08:48:13.810Z,16.90
2023-02-07T08:50:20.424Z,19.45
2023-02-07T08:52:27.086Z,19.13
2023-02-07T08:54:33.664Z,20.42
2023-02-07T08:56:41.160Z,28.30
2023-02-07T08:58:46.264Z,17.58
2023-02-07T09:00:51.422Z,16.70
2023-02-07T09:02:56.522Z,15.57
2023-02-07T09:05:01.467Z,15.50
2023-02-07T09:07:06.397Z,15.35
2023-02-07T09:09:12.655Z,16.75
2023-02-07T09:11:18.213Z,15.13
2023-02-07T09:13:25.831Z,16.17
2023-02-07T09:15:30.738Z,15.52
2023-02-07T09:17:38.048Z,16.65
2023-02-07T09:19:42.952Z,16.15
2023-02-07T09:21:48.202Z,15.25
2023-02-07T09:23:53.499Z,16.70
2023-02-07T09:26:02.739Z,16.00
2023-02-07T09:28:08.207Z,13.95
2023-02-07T09:30:16.493Z,14.02
2023-02-07T09:32:21.571Z,14.30
2023-02-07T09:34:27.608Z,13.82
2023-02-07T09:36:34.094Z,13.25
2023-02-07T09:38:38.988Z,12.07
2023-02-07T09:40:46.104Z,13.77
2023-02-07T09:43:00.368Z,11.82
2023-02-07T09:45:11.700Z,12.23
2023-02-07T09:47:23.567Z,12.73
2023-02-07T09:49:38.670Z,11.13
2023-02-07T09:51:45.251Z,12.30
2023-02-07T09:53:56.703Z,12.45
2023-02-07T09:56:04.428Z,12.60
2023-02-07T09:58:17.021Z,12.77
2023-02-07T10:00:28.831Z,12.57
2023-02-07T10:02:44.496Z,12.20
2023-02-07T10:04:52.834Z,12.68
2023-02-07T10:07:00.297Z,12.02
2023-02-07T10:09:05.341Z,12.18
2023-02-07T10:11:23.841Z,11.85
2023-02-07T10:13:50.324Z,11.05
2023-02-07T10:16:16.417Z,11.60
2023-02-07T10:18:42.852Z,11.48
2023-02-07T10:20:59.300Z,11.40
2023-02-07T10:23:30.977Z,10.38
2023-02-07T10:25:45.715Z,9.73
2023-02-07T10:28:04.408Z,9.98
2023-02-07T10:30:18.596Z,12.55
2023-02-07T10:32:27.461Z,13.68
2023-02-07T10:34:41.478Z,11.85
2023-02-07T10:36:51.566Z,11.05
2023-02-07T10:39:09.526Z,13.35
2023-02-07T10:41:21.787Z,13.20
2023-02-07T10:43:35.221Z,11.43
2023-02-07T10:45:44.105Z,11.35
2023-02-07T10:47:49.640Z,11.00
2023-02-07T10:49:58.464Z,10.20
2023-02-07T10:52:16.269Z,11.07
2023-02-07T10:54:24.647Z,11.23
2023-02-07T10:56:31.453Z,9.73
2023-02-07T10:58:42.353Z,10.75
2023-02-07T11:00:52.304Z,10.48
2023-02-07T11:03:03.997Z,11.30
2023-02-07T11:05:35.260Z,10.98
2023-02-07T11:07:47.675Z,9.77
2023-02-07T11:09:52.889Z,9.77
2023-02-07T11:11:58.721Z,10.30
2023-02-07T11:14:08.411Z,9.80
2023-02-07T11:16:13.418Z,9.85
2023-02-07T11:18:38.611Z,10.23
2023-02-07T11:20:53.347Z,9.50
2023-02-07T11:23:00.164Z,9.93
2023-02-07T11:25:09.189Z,9.73
2023-02-07T11:27:18.650Z,9.93
2023-02-07T11:29:25.903Z,10.52
2023-02-07T11:31:35.290Z,9.05
2023-02-07T11:33:40.685Z,8.95
2023-02-07T11:36:15.145Z,9.48
2023-02-07T11:38:21.425Z,8.60
2023-02-07T11:40:31.909Z,8.73
2023-02-07T11:42:39.758Z,8.55
2023-02-07T11:44:47.750Z,9.52
2023-02-07T11:46:53.745Z,8.70
2023-02-07T11:49:01.750Z,9.55
2023-02-07T11:51:18.389Z,9.88
2023-02-07T11:53:27.368Z,8.73
2023-02-07T11:55:38.149Z,8.90
2023-02-07T11:57:43.960Z,8.65
2023-02-07T11:59:54.934Z,10.13
2023-02-07T12:02:04.532Z,8.95
2023-02-07T12:04:16.052Z,8.80
2023-02-07T12:06:29.562Z,8.95
2023-02-07T12:08:38.971Z,8.48
2023-02-07T12:10:49.989Z,9.23
2023-02-07T12:13:03.749Z,8.55
2023-02-07T12:15:16.964Z,11.25
2023-02-07T12:19:39.758Z,11.50
2023-02-07T12:22:00.132Z,9.40
2023-02-07T12:24:14.322Z,8.75
2023-02-07T12:26:27.786Z,9.57
2023-02-07T12:28:42.661Z,9.38
2023-02-07T12:30:53.422Z,9.15
2023-02-07T12:33:10.172Z,9.38
2023-02-07T12:35:25.690Z,9.07
2023-02-07T12:37:43.163Z,9.32
2023-02-07T12:39:57.472Z,9.48
2023-02-07T12:42:21.898Z,8.20
2023-02-07T12:44:32.672Z,9.32
2023-02-07T12:46:49.732Z,7.88
2023-02-07T12:49:12.596Z,6.22
2023-02-07T12:51:33.943Z,8.75
2023-02-07T12:54:03.524Z,7.90
2023-02-07T12:56:25.419Z,8.60
2023-02-07T12:58:50.271Z,8.55
2023-02-07T13:01:03.297Z,7.80
2023-02-07T13:03:27.635Z,6.47
2023-02-07T13:06:03.525Z,6.90
2023-02-07T13:08:20.841Z,6.68
2023-02-07T13:10:39.876Z,6.72
2023-02-07T13:12:52.309Z,6.60
2023-02-07T13:15:16.749Z,7.65
2023-02-07T13:17:43.832Z,7.40
2023-02-07T13:19:56.094Z,6.65
2023-02-07T13:22:06.494Z,7.30
2023-02-07T13:24:17.313Z,7.15
2023-02-07T13:26:27.567Z,6.88
2023-02-07T13:28:43.489Z,7.57
2023-02-07T13:30:50.846Z,6.78
2023-02-07T13:32:56.489Z,6.97
2023-02-07T13:35:05.804Z,6.72
2023-02-07T13:37:17.323Z,7.40
2023-02-07T13:39:35.882Z,7.22
2023-02-07T13:41:57.965Z,6.28
2023-02-07T13:44:16.028Z,6.47
2023-02-07T13:46:46.723Z,7.20
2023-02-07T13:48:59.377Z,5.95
2023-02-07T13:51:16.041Z,6.53
2023-02-07T13:53:42.555Z,6.55
2023-02-07T13:55:48.262Z,7.43
2023-02-07T13:58:09.856Z,6.55
2023-02-07T14:00:24.166Z,6.40
2023-02-07T14:02:32.244Z,6.05
2023-02-07T14:04:52.431Z,6.88
2023-02-07T14:07:11.999Z,6.35
2023-02-07T14:09:26.471Z,6.50
2023-02-07T14:11:41.693Z,6.88
2023-02-07T14:13:49.602Z,7.35
2023-02-07T14:16:09.572Z,6.85
2023-02-07T14:18:48.698Z,6.70
2023-02-07T14:21:04.180Z,6.35
2023-02-07T14:23:19.442Z,7.00
2023-02-07T14:25:26.707Z,6.45
2023-02-07T14:27:35.314Z,9.10
2023-02-07T14:30:22.438Z,6.07
2023-02-07T14:32:42.847Z,6.63
2023-02-07T14:35:08.432Z,6.70
2023-02-07T14:37:25.605Z,10.63
2023-02-07T14:39:34.839Z,7.85
2023-02-07T14:41:44.431Z,7.60
2023-02-07T14:44:08.031Z,7.95
2023-02-07T14:46:20.841Z,7.18
2023-02-07T14:48:40.832Z,6.38
2023-02-07T14:50:55.760Z,7.10
2023-02-07T14:53:04.452Z,7.53
2023-02-07T14:55:19.082Z,6.68
2023-02-07T14:57:40.957Z,6.38
2023-02-07T15:00:00.392Z,6.13
2023-02-07T15:02:38.534Z,7.05
2023-02-07T15:04:46.454Z,6.70
2023-02-07T15:06:51.688Z,6.70
2023-02-07T15:09:02.869Z,6.93
2023-02-07T15:11:17.013Z,6.32
2023-02-07T15:13:30.991Z,6.90
2023-02-07T15:15:51.331Z,6.75
2023-02-07T15:18:02.365Z,7.80
2023-02-07T15:20:09.381Z,7.10
2023-02-07T15:22:29.099Z,6.63
2023-02-07T15:24:50.706Z,7.07
2023-02-07T15:27:00.861Z,7.63
2023-02-07T15:29:09.713Z,8.25
2023-02-07T15:31:18.329Z,6.93
2023-02-07T15:33:28.334Z,7.35
2023-02-07T15:35:42.451Z,7.18
2023-02-07T15:37:48.777Z,6.68
2023-02-07T15:39:55.924Z,6.85
2023-02-07T15:42:01.509Z,7.30
2023-02-07T15:44:09.513Z,6.72
2023-02-07T15:46:15.805Z,7.13
2023-02-07T15:48:20.906Z,6.70
2023-02-07T15:50:32.776Z,6.63
2023-02-07T15:52:42.911Z,6.63
2023-02-07T15:54:53.086Z,6.80
2023-02-07T15:57:02.885Z,6.18
2023-02-07T15:59:14.147Z,6.88
2023-02-07T16:01:34.965Z,6.90
2023-02-07T16:03:44.151Z,6.75
2023-02-07T16:05:52.366Z,6.85
2023-02-07T16:07:58.582Z,6.10
2023-02-07T16:10:20.491Z,6.15
2023-02-07T16:12:45.635Z,7.03
2023-02-07T16:14:51.112Z,6.68
2023-02-07T16:16:58.139Z,7.32
2023-02-07T16:19:18.389Z,7.35
2023-02-07T16:21:29.154Z,6.70
2023-02-07T16:23:34.764Z,7.28
2023-02-07T16:25:40.444Z,6.70
2023-02-07T16:27:49.168Z,6.63
2023-02-07T16:29:54.564Z,6.55
2023-02-07T16:31:59.750Z,6.80
2023-02-07T16:34:04.682Z,7.10
2023-02-07T16:36:15.638Z,7.47
2023-02-07T16:38:23.453Z,6.93
2023-02-07T16:40:29.243Z,6.75
2023-02-07T16:42:36.043Z,6.60
2023-02-07T16:44:40.953Z,6.63
2023-02-07T16:46:45.904Z,7.50
2023-02-07T16:48:51.375Z,7.32
2023-02-07T16:50:57.929Z,8.07
2023-02-07T16:53:02.921Z,7.57
2023-02-07T16:55:13.236Z,7.22
2023-02-07T16:57:18.427Z,6.13
2023-02-07T16:59:25.798Z,8.48
2023-02-07T17:01:30.733Z,8.07
2023-02-07T17:03:36.482Z,7.35
2023-02-07T17:05:41.370Z,7.90
2023-02-07T17:07:47.239Z,7.70
2023-02-07T17:09:52.641Z,7.70
2023-02-07T17:12:00.132Z,7.63
2023-02-07T17:14:05.030Z,7.93
2023-02-07T17:16:14.512Z,7.50
2023-02-07T17:18:20.617Z,7.53
2023-02-07T17:20:28.770Z,7.82
2023-02-07T17:22:33.673Z,8.27
2023-02-07T17:24:38.602Z,8.68
2023-02-07T17:26:46.864Z,9.38
2023-02-07T17:28:55.023Z,8.57
2023-02-07T17:31:00.172Z,7.35
2023-02-07T17:33:05.077Z,8.52
2023-02-07T17:35:11.113Z,8.85
2023-02-07T17:37:16.356Z,7.72
2023-02-07T17:39:23.448Z,8.52
2023-02-07T17:41:28.816Z,9.15
2023-02-07T17:43:33.758Z,8.70
2023-02-07T17:45:41.296Z,7.85
2023-02-07T17:47:46.983Z,8.07
2023-02-07T17:49:51.864Z,8.60
2023-02-07T17:51:56.968Z,8.82
2023-02-07T17:54:01.862Z,8.73
2023-02-07T17:56:08.083Z,9.35
2023-02-07T17:58:21.254Z,9.52
2023-02-07T18:00:29.618Z,9.43
2023-02-07T18:02:38.081Z,9.15
2023-02-07T18:04:43.012Z,9.23
2023-02-07T18:06:47.969Z,8.95
2023-02-07T18:08:54.498Z,7.95
2023-02-07T18:11:04.235Z,8.55
2023-02-07T18:13:09.163Z,8.55
2023-02-07T18:15:15.329Z,8.13
2023-02-07T18:17:22.824Z,8.93
2023-02-07T18:19:33.065Z,8.02
2023-02-07T18:21:38.708Z,8.40
2023-02-07T18:23:44.027Z,7.40
2023-02-07T18:25:51.161Z,8.63
2023-02-07T18:27:57.101Z,8.07
2023-02-07T18:30:02.081Z,9.02
2023-02-07T18:32:07.234Z,9.13
2023-02-07T18:34:14.049Z,8.75
2023-02-07T18:36:26.840Z,8.50
2023-02-07T18:38:33.723Z,8.27
2023-02-07T18:40:38.873Z,8.48
2023-02-07T18:42:44.158Z,9.40
2023-02-07T18:44:49.214Z,10.10
2023-02-07T18:46:54.100Z,10.40
2023-02-07T18:49:00.825Z,10.23
2023-02-07T18:51:09.699Z,10.18
2023-02-07T18:53:17.259Z,11.32
2023-02-07T18:55:22.224Z,12.05
2023-02-07T18:57:27.111Z,9.93
2023-02-07T18:59:32.006Z,9.45
2023-02-07T19:01:37.713Z,9.80
2023-02-07T19:03:44.594Z,8.93
2023-02-07T19:05:49.482Z,8.70
2023-02-07T19:07:56.362Z,8.93
2023-02-07T19:10:04.363Z,8.90
2023-02-07T19:12:10.946Z,9.48
2023-02-07T19:14:18.174Z,9.13
2023-02-07T19:16:26.450Z,8.52
2023-02-07T19:18:31.390Z,8.48
2023-02-07T19:20:36.383Z,9.45
2023-02-07T19:22:41.592Z,9.20
2023-02-07T19:24:46.502Z,9.60
2023-02-07T19:26:57.165Z,9.15
2023-02-07T19:29:05.250Z,9.57
2023-02-07T19:31:17.770Z,9.27
2023-02-07T19:33:23.124Z,9.50
2023-02-07T19:35:28.013Z,9.95
2023-02-07T19:37:32.881Z,8.70
2023-02-07T19:39:37.788Z,8.55
2023-02-07T19:41:42.703Z,9.82
2023-02-07T19:43:50.988Z,9.25
2023-02-07T19:45:56.455Z,8.45
2023-02-07T19:48:01.409Z,8.80
2023-02-07T19:50:07.546Z,9.15
2023-02-07T19:52:12.508Z,8.82
2023-02-07T19:54:17.821Z,9.27
2023-02-07T19:56:26.897Z,9.13
2023-02-07T19:58:32.714Z,9.07
2023-02-07T20:00:40.511Z,9.48
2023-02-07T20:02:45.579Z,8.95
2023-02-07T20:04:54.556Z,9.38
2023-02-07T20:07:00.147Z,8.68
2023-02-07T20:09:09.196Z,10.00
2023-02-07T20:11:17.667Z,9.63
2023-02-07T20:13:22.627Z,9.82
2023-02-07T20:15:27.559Z,10.07
2023-02-07T20:17:35.059Z,10.45
2023-02-07T20:19:40.578Z,10.10
2023-02-07T20:21:46.206Z,9.05
2023-02-07T20:23:52.284Z,9.43
2023-02-07T20:25:57.590Z,9.35
2023-02-07T20:28:02.706Z,9.55
2023-02-07T20:30:09.051Z,9.63
2023-02-07T20:32:15.542Z,10.15
2023-02-07T20:34:23.256Z,9.80
2023-02-07T20:36:29.477Z,9.70
2023-02-07T20:38:34.681Z,10.45
2023-02-07T20:40:40.889Z,9.43
2023-02-07T20:42:46.401Z,10.25
2023-02-07T20:44:51.341Z,9.80
2023-02-07T20:46:59.358Z,10.63
2023-02-07T20:49:07.345Z,10.93
2023-02-07T20:51:16.196Z,11.82
2023-02-07T20:53:21.075Z,10.00
2023-02-07T20:55:27.004Z,10.02
2023-02-07T20:57:32.138Z,10.98
2023-02-07T20:59:37.562Z,10.77
2023-02-07T21:01:42.574Z,11.40
2023-02-07T21:03:48.965Z,10.82
2023-02-07T21:05:53.858Z,11.55
2023-02-07T21:08:02.074Z,11.55
2023-02-07T21:10:09.607Z,11.55
2023-02-07T21:12:14.529Z,11.25
2023-02-07T21:14:24.872Z,10.77
2023-02-07T21:16:30.812Z,11.85
2023-02-07T21:18:37.670Z,11.63
2023-02-07T21:20:43.452Z,11.38
2023-02-07T21:22:48.353Z,11.98
2023-02-07T21:24:55.823Z,11.05
2023-02-07T21:27:03.101Z,11.38
2023-02-07T21:29:09.042Z,13.23
2023-02-07T21:31:17.410Z,11.52
2023-02-07T21:33:22.376Z,13.55
2023-02-07T21:35:27.265Z,13.77
2023-02-07T21:37:32.435Z,14.73
2023-02-07T21:39:37.398Z,17.45
2023-02-07T21:41:48.027Z,19.67
2023-02-07T21:43:53.289Z,18.30
2023-02-07T21:46:07.052Z,17.08
2023-02-07T21:48:11.976Z,15.10
2023-02-07T21:50:16.894Z,11.70
2023-02-07T21:52:22.277Z,12.38
2023-02-07T21:54:27.167Z,11.35
2023-02-07T21:56:35.121Z,10.98
2023-02-07T21:58:42.948Z,10.52
2023-02-07T22:00:47.833Z,9.52
2023-02-07T22:02:52.758Z,10.07
2023-02-07T22:04:57.678Z,10.50
2023-02-07T22:07:02.571Z,9.77
2023-02-07T22:09:08.055Z,9.35
2023-02-07T22:11:14.592Z,9.75
2023-02-07T22:13:19.532Z,9.52
2023-02-07T22:15:27.030Z,9.85
2023-02-07T22:17:31.986Z,9.77
2023-02-07T22:19:36.882Z,9.63
2023-02-07T22:21:42.177Z,10.68
2023-02-07T22:23:47.124Z,9.35
2023-02-07T22:25:54.944Z,10.75
2023-02-07T22:28:00.672Z,9.63
2023-02-07T22:30:05.675Z,10.73
2023-02-07T22:32:13.176Z,11.48
2023-02-07T22:34:19.046Z,11.07
2023-02-07T22:36:29.078Z,10.23
2023-02-07T22:38:34.027Z,9.82
2023-02-07T22:40:41.597Z,10.35
2023-02-07T22:42:46.704Z,11.18
2023-02-07T22:44:51.920Z,10.70
2023-02-07T22:46:57.240Z,9.88
2023-02-07T22:49:04.746Z,9.20
2023-02-07T22:51:20.406Z,9.80
2023-02-07T22:53:25.633Z,8.98
2023-02-07T22:55:30.535Z,9.75
2023-02-07T22:57:35.435Z,9.52
2023-02-07T22:59:41.059Z,10.50
2023-02-07T23:01:47.344Z,9.65
2023-02-07T23:03:53.994Z,9.52
2023-02-07T23:06:05.238Z,9.82
2023-02-07T23:08:10.246Z,9.73
2023-02-07T23:10:15.434Z,8.60
2023-02-07T23:12:20.331Z,9.38
2023-02-07T23:14:25.275Z,9.23
2023-02-07T23:16:32.266Z,9.68
2023-02-07T23:18:37.567Z,8.25
2023-02-07T23:20:47.468Z,9.38
2023-02-07T23:22:54.924Z,9.05
2023-02-07T23:24:59.927Z,9.95
2023-02-07T23:27:04.867Z,9.38
2023-02-07T23:29:10.028Z,9.02
2023-02-07T23:31:19.749Z,9.68
2023-02-07T23:33:24.740Z,8.35
2023-02-07T23:35:30.217Z,8.70
2023-02-07T23:37:35.704Z,8.77
2023-02-07T23:39:43.213Z,8.85
2023-02-07T23:41:48.205Z,8.77
2023-02-07T23:43:53.170Z,8.65
2023-02-07T23:45:58.519Z,8.13
2023-02-07T23:48:08.726Z,8.48
2023-02-07T23:50:14.624Z,9.38
2023-02-07T23:52:20.207Z,9.45
2023-02-07T23:54:25.247Z,8.85
2023-02-07T23:56:32.962Z,9.18
2023-02-07T23:58:39.612Z,9.93
